sensor_id;sensor_type;location;lat;lon;timestamp;pressure;altitude;pressure_sealevel;temperature;humidity
24666;BME280;29726;53.532;-1.478;2023-03-30T00:00:48;98543.34;;;17.11;100.00
24666;BME280;29726;53.532;-1.478;2023-03-30T00:03:31;98534.72;;;17.09;100.00
24666;BME280;29726;53.532;-1.478;2023-03-30T00:06:16;98529.81;;;17.10;100.00
24666;BME280;29726;53.532;-1.478;2023-03-30T00:09:09;98520.78;;;17.04;100.00
24666;BME280;29726;53.532;-1.478;2023-03-30T00:11:53;98526.78;;;17.08;100.00
24666;BME280;29726;53.532;-1.478;2023-03-30T00:14:38;98542.97;;;17.07;100.00
24666;BME280;29726;53.532;-1.478;2023-03-30T00:17:25;98531.69;;;17.07;100.00
24666;BME280;29726;53.532;-1.478;2023-03-30T00:20:10;98530.19;;;17.06;100.00
24666;BME280;29726;53.532;-1.478;2023-03-30T00:22:55;98530.75;;;17.05;100.00
24666;BME280;29726;53.532;-1.478;2023-03-30T00:25:41;98529.41;;;17.06;100.00
24666;BME280;29726;53.532;-1.478;2023-03-30T00:28:25;98517.00;;;17.01;100.00
24666;BME280;29726;53.532;-1.478;2023-03-30T00:31:09;98529.78;;;17.02;100.00
24666;BME280;29726;53.532;-1.478;2023-03-30T00:33:54;98521.31;;;17.02;100.00
24666;BME280;29726;53.532;-1.478;2023-03-30T00:36:38;98525.25;;;16.99;100.00
24666;BME280;29726;53.532;-1.478;2023-03-30T00:39:22;98535.03;;;16.98;100.00
24666;BME280;29726;53.532;-1.478;2023-03-30T00:42:14;98532.22;;;16.98;100.00
24666;BME280;29726;53.532;-1.478;2023-03-30T00:48:22;98519.25;;;16.95;100.00
24666;BME280;29726;53.532;-1.478;2023-03-30T00:51:08;98521.88;;;16.93;100.00
24666;BME280;29726;53.532;-1.478;2023-03-30T00:53:56;98516.59;;;16.90;100.00
24666;BME280;29726;53.532;-1.478;2023-03-30T00:56:42;98512.84;;;16.87;100.00
24666;BME280;29726;53.532;-1.478;2023-03-30T00:59:27;98512.25;;;16.89;100.00
24666;BME280;29726;53.532;-1.478;2023-03-30T01:02:10;98508.69;;;16.88;100.00
24666;BME280;29726;53.532;-1.478;2023-03-30T01:04:56;98496.63;;;16.80;100.00
24666;BME280;29726;53.532;-1.478;2023-03-30T01:07:41;98505.31;;;16.82;100.00
24666;BME280;29726;53.532;-1.478;2023-03-30T01:10:26;98497.56;;;16.75;100.00
24666;BME280;29726;53.532;-1.478;2023-03-30T01:13:12;98505.09;;;16.80;100.00
24666;BME280;29726;53.532;-1.478;2023-03-30T01:22:59;98519.56;;;16.77;100.00
24666;BME280;29726;53.532;-1.478;2023-03-30T01:25:58;98509.41;;;16.74;100.00
24666;BME280;29726;53.532;-1.478;2023-03-30T01:29:12;98515.03;;;16.74;100.00
24666;BME280;29726;53.532;-1.478;2023-03-30T01:34:53;98509.75;;;16.71;100.00
24666;BME280;29726;53.532;-1.478;2023-03-30T01:46:48;98501.84;;;16.62;100.00
24666;BME280;29726;53.532;-1.478;2023-03-30T01:53:04;98504.84;;;16.64;100.00
24666;BME280;29726;53.532;-1.478;2023-03-30T01:58:51;98496.22;;;16.62;100.00
24666;BME280;29726;53.532;-1.478;2023-03-30T02:01:38;98480.78;;;16.55;100.00
24666;BME280;29726;53.532;-1.478;2023-03-30T02:04:25;98487.56;;;16.60;100.00
24666;BME280;29726;53.532;-1.478;2023-03-30T02:07:15;98484.34;;;16.56;100.00
24666;BME280;29726;53.532;-1.478;2023-03-30T02:10:05;98488.66;;;16.57;100.00
24666;BME280;29726;53.532;-1.478;2023-03-30T02:12:55;98485.28;;;16.58;100.00
24666;BME280;29726;53.532;-1.478;2023-03-30T02:15:46;98446.53;;;16.36;100.00
24666;BME280;29726;53.532;-1.478;2023-03-30T02:18:31;98450.84;;;16.37;100.00
24666;BME280;29726;53.532;-1.478;2023-03-30T02:21:15;98472.88;;;16.54;100.00
24666;BME280;29726;53.532;-1.478;2023-03-30T02:24:02;98473.06;;;16.56;100.00
24666;BME280;29726;53.532;-1.478;2023-03-30T02:26:49;98461.78;;;16.48;100.00
24666;BME280;29726;53.532;-1.478;2023-03-30T02:29:36;98462.53;;;16.49;100.00
24666;BME280;29726;53.532;-1.478;2023-03-30T02:32:24;98459.16;;;16.50;100.00
24666;BME280;29726;53.532;-1.478;2023-03-30T02:45:43;98466.28;;;16.44;100.00
24666;BME280;29726;53.532;-1.478;2023-03-30T02:57:11;98454.63;;;16.40;100.00
24666;BME280;29726;53.532;-1.478;2023-03-30T03:00:11;98453.66;;;16.37;100.00
24666;BME280;29726;53.532;-1.478;2023-03-30T03:03:09;98443.50;;;16.34;100.00
24666;BME280;29726;53.532;-1.478;2023-03-30T03:05:56;98446.84;;;16.33;100.00
24666;BME280;29726;53.532;-1.478;2023-03-30T03:08:45;98442.19;;;16.35;100.00
24666;BME280;29726;53.532;-1.478;2023-03-30T03:11:30;98443.50;;;16.34;100.00
24666;BME280;29726;53.532;-1.478;2023-03-30T03:14:14;98450.22;;;16.31;100.00
24666;BME280;29726;53.532;-1.478;2023-03-30T03:16:58;98460.19;;;16.32;100.00
24666;BME280;29726;53.532;-1.478;2023-03-30T03:19:42;98463.34;;;16.29;100.00
24666;BME280;29726;53.532;-1.478;2023-03-30T03:22:26;98474.59;;;16.29;100.00
24666;BME280;29726;53.532;-1.478;2023-03-30T03:25:10;98478.72;;;16.28;100.00
24666;BME280;29726;53.532;-1.478;2023-03-30T03:27:54;98474.22;;;16.25;100.00
24666;BME280;29726;53.532;-1.478;2023-03-30T03:30:38;98463.88;;;16.20;100.00
24666;BME280;29726;53.532;-1.478;2023-03-30T03:33:23;98475.34;;;16.22;100.00
24666;BME280;29726;53.532;-1.478;2023-03-30T03:36:08;98466.69;;;16.20;100.00
24666;BME280;29726;53.532;-1.478;2023-03-30T03:38:52;98473.25;;;16.22;100.00
24666;BME280;29726;53.532;-1.478;2023-03-30T03:41:37;98453.34;;;16.13;100.00
24666;BME280;29726;53.532;-1.478;2023-03-30T03:44:21;98455.22;;;16.18;100.00
24666;BME280;29726;53.532;-1.478;2023-03-30T03:47:05;98452.22;;;16.16;100.00
24666;BME280;29726;53.532;-1.478;2023-03-30T03:49:49;98458.19;;;16.12;100.00
24666;BME280;29726;53.532;-1.478;2023-03-30T03:52:35;98457.44;;;16.12;100.00
24666;BME280;29726;53.532;-1.478;2023-03-30T03:55:19;98447.47;;;16.11;100.00
24666;BME280;29726;53.532;-1.478;2023-03-30T03:58:04;98461.97;;;16.15;100.00
24666;BME280;29726;53.532;-1.478;2023-03-30T04:00:50;98465.34;;;16.13;100.00
24666;BME280;29726;53.532;-1.478;2023-03-30T04:03:34;98458.75;;;16.11;100.00
24666;BME280;29726;53.532;-1.478;2023-03-30T04:06:18;98468.88;;;16.06;100.00
24666;BME280;29726;53.532;-1.478;2023-03-30T04:09:02;98468.28;;;16.08;100.00
24666;BME280;29726;53.532;-1.478;2023-03-30T04:11:46;98457.59;;;16.06;100.00
24666;BME280;29726;53.532;-1.478;2023-03-30T04:14:29;98466.59;;;16.05;100.00
24666;BME280;29726;53.532;-1.478;2023-03-30T04:17:13;98462.84;;;16.02;100.00
24666;BME280;29726;53.532;-1.478;2023-03-30T04:19:59;98453.59;;;15.94;100.00
24666;BME280;29726;53.532;-1.478;2023-03-30T04:22:47;98479.72;;;16.02;100.00
24666;BME280;29726;53.532;-1.478;2023-03-30T04:25:33;98487.22;;;16.00;100.00
24666;BME280;29726;53.532;-1.478;2023-03-30T04:28:19;98477.06;;;15.97;100.00
24666;BME280;29726;53.532;-1.478;2023-03-30T04:31:06;98478.38;;;15.96;100.00
24666;BME280;29726;53.532;-1.478;2023-03-30T04:33:53;98484.19;;;15.98;100.00
24666;BME280;29726;53.532;-1.478;2023-03-30T04:36:39;98475.75;;;15.98;100.00
24666;BME280;29726;53.532;-1.478;2023-03-30T04:39:29;98489.63;;;15.96;100.00
24666;BME280;29726;53.532;-1.478;2023-03-30T04:42:13;98486.81;;;15.96;100.00
24666;BME280;29726;53.532;-1.478;2023-03-30T04:44:59;98486.75;;;15.88;100.00
24666;BME280;29726;53.532;-1.478;2023-03-30T04:47:44;98488.59;;;15.86;100.00
24666;BME280;29726;53.532;-1.478;2023-03-30T04:50:31;98502.53;;;15.91;100.00
24666;BME280;29726;53.532;-1.478;2023-03-30T04:53:16;98475.94;;;15.72;100.00
24666;BME280;29726;53.532;-1.478;2023-03-30T04:56:01;98519.75;;;15.88;100.00
24666;BME280;29726;53.532;-1.478;2023-03-30T04:58:44;98524.78;;;15.82;100.00
24666;BME280;29726;53.532;-1.478;2023-03-30T05:01:28;98528.91;;;15.81;100.00
24666;BME280;29726;53.532;-1.478;2023-03-30T05:04:13;98507.91;;;15.82;100.00
24666;BME280;29726;53.532;-1.478;2023-03-30T05:06:56;98521.56;;;15.78;100.00
24666;BME280;29726;53.532;-1.478;2023-03-30T05:09:40;98542.22;;;15.80;100.00
24666;BME280;29726;53.532;-1.478;2023-03-30T05:12:24;98548.00;;;15.75;100.00
24666;BME280;29726;53.532;-1.478;2023-03-30T05:15:09;98552.50;;;15.78;100.00
24666;BME280;29726;53.532;-1.478;2023-03-30T05:17:53;98547.22;;;15.74;100.00
24666;BME280;29726;53.532;-1.478;2023-03-30T05:20:37;98546.63;;;15.68;100.00
24666;BME280;29726;53.532;-1.478;2023-03-30T05:23:21;98569.00;;;15.74;100.00
24666;BME280;29726;53.532;-1.478;2023-03-30T05:26:07;98567.28;;;15.71;100.00
24666;BME280;29726;53.532;-1.478;2023-03-30T05:28:52;98569.88;;;15.69;100.00
24666;BME280;29726;53.532;-1.478;2023-03-30T05:31:36;98566.63;;;15.65;100.00
24666;BME280;29726;53.532;-1.478;2023-03-30T05:34:20;98573.16;;;15.60;100.00
24666;BME280;29726;53.532;-1.478;2023-03-30T05:37:04;98589.13;;;15.65;100.00
24666;BME280;29726;53.532;-1.478;2023-03-30T05:39:49;98595.88;;;15.62;100.00
24666;BME280;29726;53.532;-1.478;2023-03-30T05:42:33;98580.44;;;15.55;100.00
24666;BME280;29726;53.532;-1.478;2023-03-30T05:45:18;98594.06;;;15.51;100.00
24666;BME280;29726;53.532;-1.478;2023-03-30T05:48:02;98606.91;;;15.60;100.00
24666;BME280;29726;53.532;-1.478;2023-03-30T05:50:46;98617.44;;;15.59;100.00
24666;BME280;29726;53.532;-1.478;2023-03-30T05:53:30;98613.03;;;15.51;100.00
24666;BME280;29726;53.532;-1.478;2023-03-30T05:56:14;98626.72;;;15.54;100.00
24666;BME280;29726;53.532;-1.478;2023-03-30T05:58:59;98625.22;;;15.53;100.00
24666;BME280;29726;53.532;-1.478;2023-03-30T06:01:43;98638.75;;;15.55;100.00
24666;BME280;29726;53.532;-1.478;2023-03-30T06:04:28;98632.91;;;15.53;100.00
24666;BME280;29726;53.532;-1.478;2023-03-30T06:07:14;98635.31;;;15.49;100.00
24666;BME280;29726;53.532;-1.478;2023-03-30T06:09:58;98634.00;;;15.50;100.00
24666;BME280;29726;53.532;-1.478;2023-03-30T06:12:42;98644.28;;;15.47;100.00
24666;BME280;29726;53.532;-1.478;2023-03-30T06:15:27;98648.41;;;15.46;100.00
24666;BME280;29726;53.532;-1.478;2023-03-30T06:18:11;98655.66;;;15.42;100.00
24666;BME280;29726;53.532;-1.478;2023-03-30T06:20:55;98665.59;;;15.43;100.00
24666;BME280;29726;53.532;-1.478;2023-03-30T06:23:39;98671.00;;;15.41;100.00
24666;BME280;29726;53.532;-1.478;2023-03-30T06:26:24;98676.09;;;15.42;100.00
24666;BME280;29726;53.532;-1.478;2023-03-30T06:29:07;98682.81;;;15.39;100.00
24666;BME280;29726;53.532;-1.478;2023-03-30T06:31:52;98681.84;;;15.37;100.00
24666;BME280;29726;53.532;-1.478;2023-03-30T06:34:36;98694.81;;;15.40;100.00
24666;BME280;29726;53.532;-1.478;2023-03-30T06:37:20;98687.25;;;15.35;100.00
24666;BME280;29726;53.532;-1.478;2023-03-30T06:40:04;98695.16;;;15.36;100.00
24666;BME280;29726;53.532;-1.478;2023-03-30T06:42:55;98690.84;;;15.35;100.00
24666;BME280;29726;53.532;-1.478;2023-03-30T06:45:40;98690.63;;;15.33;100.00
24666;BME280;29726;53.532;-1.478;2023-03-30T06:48:25;98699.25;;;15.35;100.00
24666;BME280;29726;53.532;-1.478;2023-03-30T06:51:09;98709.75;;;15.35;100.00
24666;BME280;29726;53.532;-1.478;2023-03-30T06:53:55;98702.19;;;15.30;100.00
24666;BME280;29726;53.532;-1.478;2023-03-30T06:56:39;98698.16;;;15.25;100.00
24666;BME280;29726;53.532;-1.478;2023-03-30T06:59:23;98701.88;;;15.33;100.00
24666;BME280;29726;53.532;-1.478;2023-03-30T07:02:12;98708.56;;;15.30;100.00
24666;BME280;29726;53.532;-1.478;2023-03-30T07:04:56;98701.19;;;15.27;100.00
24666;BME280;29726;53.532;-1.478;2023-03-30T07:07:40;98711.94;;;15.29;100.00
24666;BME280;29726;53.532;-1.478;2023-03-30T07:10:24;98716.31;;;15.24;100.00
24666;BME280;29726;53.532;-1.478;2023-03-30T07:13:09;98732.34;;;15.29;100.00
24666;BME280;29726;53.532;-1.478;2023-03-30T07:15:53;98720.13;;;15.27;100.00
24666;BME280;29726;53.532;-1.478;2023-03-30T07:18:37;98729.84;;;15.26;100.00
24666;BME280;29726;53.532;-1.478;2023-03-30T07:21:21;98734.41;;;15.29;100.00
24666;BME280;29726;53.532;-1.478;2023-03-30T07:24:05;98725.97;;;15.29;100.00
24666;BME280;29726;53.532;-1.478;2023-03-30T07:26:50;98725.41;;;15.30;100.00
24666;BME280;29726;53.532;-1.478;2023-03-30T07:29:34;98727.50;;;15.30;100.00
24666;BME280;29726;53.532;-1.478;2023-03-30T07:32:20;98729.78;;;15.31;100.00
24666;BME280;29726;53.532;-1.478;2023-03-30T07:35:04;98717.31;;;15.27;100.00
24666;BME280;29726;53.532;-1.478;2023-03-30T07:37:48;98720.78;;;15.33;100.00
24666;BME280;29726;53.532;-1.478;2023-03-30T07:40:32;98730.72;;;15.34;100.00
24666;BME280;29726;53.532;-1.478;2023-03-30T07:43:16;98727.91;;;15.34;100.00
24666;BME280;29726;53.532;-1.478;2023-03-30T07:46:00;98732.44;;;15.37;100.00
24666;BME280;29726;53.532;-1.478;2023-03-30T07:48:44;98728.53;;;15.40;100.00
24666;BME280;29726;53.532;-1.478;2023-03-30T07:51:28;98719.03;;;15.43;100.00
24666;BME280;29726;53.532;-1.478;2023-03-30T07:54:13;98714.59;;;15.47;100.00
24666;BME280;29726;53.532;-1.478;2023-03-30T07:56:56;98719.13;;;15.50;100.00
24666;BME280;29726;53.532;-1.478;2023-03-30T07:59:40;98716.31;;;15.50;100.00
24666;BME280;29726;53.532;-1.478;2023-03-30T08:02:25;98722.78;;;15.58;100.00
24666;BME280;29726;53.532;-1.478;2023-03-30T08:05:10;98725.25;;;15.62;100.00
24666;BME280;29726;53.532;-1.478;2023-03-30T08:07:53;98703.94;;;15.66;100.00
24666;BME280;29726;53.532;-1.478;2023-03-30T08:10:38;98697.78;;;15.68;100.00
24666;BME280;29726;53.532;-1.478;2023-03-30T08:13:22;98684.66;;;15.70;100.00
24666;BME280;29726;53.532;-1.478;2023-03-30T08:16:06;98682.94;;;15.67;100.00
24666;BME280;29726;53.532;-1.478;2023-03-30T08:18:51;98691.56;;;15.82;100.00
24666;BME280;29726;53.532;-1.478;2023-03-30T08:21:37;98694.22;;;15.88;100.00
24666;BME280;29726;53.532;-1.478;2023-03-30T08:24:21;98680.22;;;15.75;100.00
24666;BME280;29726;53.532;-1.478;2023-03-30T08:27:05;98712.16;;;15.98;100.00
24666;BME280;29726;53.532;-1.478;2023-03-30T08:29:50;98720.13;;;16.07;100.00
24666;BME280;29726;53.532;-1.478;2023-03-30T08:32:36;98725.09;;;16.14;100.00
24666;BME280;29726;53.532;-1.478;2023-03-30T08:35:20;98700.16;;;16.18;100.00
24666;BME280;29726;53.532;-1.478;2023-03-30T08:38:05;98723.09;;;16.22;100.00
24666;BME280;29726;53.532;-1.478;2023-03-30T08:40:49;98721.66;;;16.28;100.00
24666;BME280;29726;53.532;-1.478;2023-03-30T08:44:00;98730.59;;;16.40;100.00
24666;BME280;29726;53.532;-1.478;2023-03-30T08:46:45;98736.09;;;16.45;100.00
24666;BME280;29726;53.532;-1.478;2023-03-30T08:49:37;98735.41;;;16.52;100.00
24666;BME280;29726;53.532;-1.478;2023-03-30T08:52:24;98745.22;;;16.59;100.00
24666;BME280;29726;53.532;-1.478;2023-03-30T08:55:22;98743.75;;;16.65;100.00
24666;BME280;29726;53.532;-1.478;2023-03-30T09:01:24;98754.19;;;16.77;100.00
24666;BME280;29726;53.532;-1.478;2023-03-30T09:04:22;98761.00;;;16.82;100.00
24666;BME280;29726;53.532;-1.478;2023-03-30T09:07:47;98778.50;;;16.88;100.00
24666;BME280;29726;53.532;-1.478;2023-03-30T09:10:39;98779.28;;;16.88;100.00
24666;BME280;29726;53.532;-1.478;2023-03-30T09:13:31;98784.22;;;16.95;100.00
24666;BME280;29726;53.532;-1.478;2023-03-30T09:16:32;98786.50;;;16.97;100.00
24666;BME280;29726;53.532;-1.478;2023-03-30T09:19:26;98783.31;;;17.00;100.00
24666;BME280;29726;53.532;-1.478;2023-03-30T09:22:14;98789.31;;;16.97;100.00
24666;BME280;29726;53.532;-1.478;2023-03-30T09:24:59;98774.66;;;16.98;100.00
24666;BME280;29726;53.532;-1.478;2023-03-30T09:30:40;98779.03;;;17.07;100.00
24666;BME280;29726;53.532;-1.478;2023-03-30T09:37:07;98775.31;;;17.12;100.00
24666;BME280;29726;53.532;-1.478;2023-03-30T09:39:52;98784.16;;;17.16;100.00
24666;BME280;29726;53.532;-1.478;2023-03-30T09:42:46;98782.44;;;17.13;100.00
24666;BME280;29726;53.532;-1.478;2023-03-30T09:45:34;98794.91;;;17.17;100.00
24666;BME280;29726;53.532;-1.478;2023-03-30T09:48:19;98799.44;;;17.20;100.00
24666;BME280;29726;53.532;-1.478;2023-03-30T09:51:13;98816.19;;;17.26;100.00
24666;BME280;29726;53.532;-1.478;2023-03-30T09:54:00;98805.84;;;17.28;100.00
24666;BME280;29726;53.532;-1.478;2023-03-30T09:56:45;98799.47;;;17.28;100.00
24666;BME280;29726;53.532;-1.478;2023-03-30T09:59:36;98797.81;;;17.32;100.00
24666;BME280;29726;53.532;-1.478;2023-03-30T10:02:25;98790.91;;;17.33;100.00
24666;BME280;29726;53.532;-1.478;2023-03-30T10:05:16;98792.81;;;17.38;100.00
24666;BME280;29726;53.532;-1.478;2023-03-30T10:08:15;98792.47;;;17.42;100.00
24666;BME280;29726;53.532;-1.478;2023-03-30T10:11:02;98795.69;;;17.46;100.00
24666;BME280;29726;53.532;-1.478;2023-03-30T10:13:49;98790.63;;;17.52;100.00
24666;BME280;29726;53.532;-1.478;2023-03-30T10:16:34;98799.47;;;17.56;100.00
24666;BME280;29726;53.532;-1.478;2023-03-30T10:19:19;98795.72;;;17.61;100.00
24666;BME280;29726;53.532;-1.478;2023-03-30T10:22:16;98781.19;;;17.49;100.00
24666;BME280;29726;53.532;-1.478;2023-03-30T10:25:08;98804.63;;;17.72;100.00
24666;BME280;29726;53.532;-1.478;2023-03-30T10:28:03;98796.00;;;17.78;100.00
24666;BME280;29726;53.532;-1.478;2023-03-30T10:30:54;98785.88;;;17.82;100.00
24666;BME280;29726;53.532;-1.478;2023-03-30T10:33:41;98783.63;;;17.88;100.00
24666;BME280;29726;53.532;-1.478;2023-03-30T10:36:38;98796.13;;;18.00;100.00
24666;BME280;29726;53.532;-1.478;2023-03-30T10:39:26;98801.03;;;18.07;100.00
24666;BME280;29726;53.532;-1.478;2023-03-30T10:42:17;98805.94;;;18.14;100.00
24666;BME280;29726;53.532;-1.478;2023-03-30T10:45:05;98810.47;;;18.17;100.00
24666;BME280;29726;53.532;-1.478;2023-03-30T10:53:49;98821.84;;;18.32;100.00
24666;BME280;29726;53.532;-1.478;2023-03-30T10:57:17;98830.16;;;18.38;100.00
24666;BME280;29726;53.532;-1.478;2023-03-30T11:00:13;98814.31;;;18.42;100.00
24666;BME280;29726;53.532;-1.478;2023-03-30T11:03:09;98810.16;;;18.43;100.00
24666;BME280;29726;53.532;-1.478;2023-03-30T11:06:02;98816.59;;;18.51;100.00
24666;BME280;29726;53.532;-1.478;2023-03-30T11:08:50;98793.06;;;18.56;100.00
24666;BME280;29726;53.532;-1.478;2023-03-30T11:11:53;98804.19;;;18.61;100.00
24666;BME280;29726;53.532;-1.478;2023-03-30T11:14:49;98808.34;;;18.68;100.00
24666;BME280;29726;53.532;-1.478;2023-03-30T11:20:32;98802.69;;;18.83;100.00
24666;BME280;29726;53.532;-1.478;2023-03-30T11:29:49;98838.34;;;19.08;100.00
24666;BME280;29726;53.532;-1.478;2023-03-30T11:33:14;98827.19;;;19.10;100.00
24666;BME280;29726;53.532;-1.478;2023-03-30T11:35:58;98847.97;;;19.20;100.00
24666;BME280;29726;53.532;-1.478;2023-03-30T11:38:52;98829.44;;;19.12;100.00
24666;BME280;29726;53.532;-1.478;2023-03-30T11:41:44;98827.78;;;19.24;100.00
24666;BME280;29726;53.532;-1.478;2023-03-30T11:44:31;98837.22;;;19.26;100.00
24666;BME280;29726;53.532;-1.478;2023-03-30T11:54:09;98820.22;;;19.41;100.00
24666;BME280;29726;53.532;-1.478;2023-03-30T12:03:07;98853.78;;;19.52;100.00
24666;BME280;29726;53.532;-1.478;2023-03-30T12:12:20;98865.28;;;19.54;100.00
24666;BME280;29726;53.532;-1.478;2023-03-30T12:18:38;98866.41;;;19.59;100.00
24666;BME280;29726;53.532;-1.478;2023-03-30T12:21:30;98877.72;;;19.59;100.00
24666;BME280;29726;53.532;-1.478;2023-03-30T12:27:08;98883.19;;;19.57;100.00
24666;BME280;29726;53.532;-1.478;2023-03-30T12:29:53;98879.44;;;19.54;100.00
24666;BME280;29726;53.532;-1.478;2023-03-30T12:32:56;98864.34;;;19.52;100.00
24666;BME280;29726;53.532;-1.478;2023-03-30T12:35:54;98867.94;;;19.52;100.00
24666;BME280;29726;53.532;-1.478;2023-03-30T12:38:43;98859.06;;;19.56;100.00
24666;BME280;29726;53.532;-1.478;2023-03-30T12:41:39;98839.22;;;19.56;100.00
24666;BME280;29726;53.532;-1.478;2023-03-30T12:44:40;98835.44;;;19.61;100.00
24666;BME280;29726;53.532;-1.478;2023-03-30T12:59:58;98814.25;;;19.84;100.00
24666;BME280;29726;53.532;-1.478;2023-03-30T13:05:51;98797.41;;;19.94;100.00
24666;BME280;29726;53.532;-1.478;2023-03-30T13:08:41;98818.19;;;19.96;100.00
24666;BME280;29726;53.532;-1.478;2023-03-30T13:11:25;98785.53;;;19.88;100.00
24666;BME280;29726;53.532;-1.478;2023-03-30T13:17:18;98807.91;;;20.16;100.00
24666;BME280;29726;53.532;-1.478;2023-03-30T13:20:17;98816.91;;;20.29;100.00
24666;BME280;29726;53.532;-1.478;2023-03-30T13:26:21;98840.06;;;20.42;100.00
24666;BME280;29726;53.532;-1.478;2023-03-30T13:29:09;98856.09;;;20.47;100.00
24666;BME280;29726;53.532;-1.478;2023-03-30T13:44:22;98859.22;;;20.66;100.00
24666;BME280;29726;53.532;-1.478;2023-03-30T13:50:05;98853.50;;;20.74;100.00
24666;BME280;29726;53.532;-1.478;2023-03-30T13:52:57;98857.25;;;20.76;100.00
24666;BME280;29726;53.532;-1.478;2023-03-30T13:55:44;98852.16;;;20.75;100.00
24666;BME280;29726;53.532;-1.478;2023-03-30T13:58:31;98862.16;;;20.83;100.00
24666;BME280;29726;53.532;-1.478;2023-03-30T14:01:19;98861.00;;;20.86;100.00
24666;BME280;29726;53.532;-1.478;2023-03-30T14:04:05;98855.31;;;20.86;100.00
24666;BME280;29726;53.532;-1.478;2023-03-30T14:06:52;98856.25;;;20.89;100.00
24666;BME280;29726;53.532;-1.478;2023-03-30T14:09:36;98843.00;;;20.91;100.00
24666;BME280;29726;53.532;-1.478;2023-03-30T14:12:20;98852.25;;;20.92;100.00
24666;BME280;29726;53.532;-1.478;2023-03-30T14:15:20;98868.06;;;21.02;100.00
24666;BME280;29726;53.532;-1.478;2023-03-30T14:18:10;98875.59;;;21.07;100.00
24666;BME280;29726;53.532;-1.478;2023-03-30T14:20:58;98869.50;;;21.11;100.00
24666;BME280;29726;53.532;-1.478;2023-03-30T14:23:48;98863.25;;;21.12;100.00
24666;BME280;29726;53.532;-1.478;2023-03-30T14:26:38;98870.44;;;21.13;100.00
24666;BME280;29726;53.532;-1.478;2023-03-30T14:29:22;98870.22;;;21.19;100.00
24666;BME280;29726;53.532;-1.478;2023-03-30T14:32:12;98883.25;;;21.22;100.00
24666;BME280;29726;53.532;-1.478;2023-03-30T14:34:56;98867.38;;;21.19;100.00
24666;BME280;29726;53.532;-1.478;2023-03-30T14:37:40;98864.09;;;21.22;100.00
24666;BME280;29726;53.532;-1.478;2023-03-30T14:40:25;98876.56;;;21.27;100.00
24666;BME280;29726;53.532;-1.478;2023-03-30T14:43:13;98879.19;;;21.32;100.00
24666;BME280;29726;53.532;-1.478;2023-03-30T14:46:02;98878.41;;;21.32;100.00
24666;BME280;29726;53.532;-1.478;2023-03-30T14:48:47;98894.66;;;21.39;100.00
24666;BME280;29726;53.532;-1.478;2023-03-30T14:51:41;98884.19;;;21.41;100.00
24666;BME280;29726;53.532;-1.478;2023-03-30T14:54:25;98877.19;;;21.42;100.00
24666;BME280;29726;53.532;-1.478;2023-03-30T14:57:11;98877.53;;;21.46;100.00
24666;BME280;29726;53.532;-1.478;2023-03-30T14:59:58;98882.22;;;21.51;100.00
24666;BME280;29726;53.532;-1.478;2023-03-30T15:02:45;98879.97;;;21.50;100.00
24666;BME280;29726;53.532;-1.478;2023-03-30T15:05:36;98878.22;;;21.54;100.00
24666;BME280;29726;53.532;-1.478;2023-03-30T15:08:25;98882.56;;;21.55;100.00
24666;BME280;29726;53.532;-1.478;2023-03-30T15:11:21;98874.88;;;21.48;100.00
24666;BME280;29726;53.532;-1.478;2023-03-30T15:14:13;98877.47;;;21.54;100.00
24666;BME280;29726;53.532;-1.478;2023-03-30T15:16:59;98881.97;;;21.57;100.00
24666;BME280;29726;53.532;-1.478;2023-03-30T15:19:50;98887.66;;;21.57;100.00
24666;BME280;29726;53.532;-1.478;2023-03-30T15:22:44;98883.47;;;21.58;100.00
24666;BME280;29726;53.532;-1.478;2023-03-30T15:25:33;98893.34;;;21.57;100.00
24666;BME280;29726;53.532;-1.478;2023-03-30T15:28:18;98884.63;;;21.55;100.00
24666;BME280;29726;53.532;-1.478;2023-03-30T15:31:03;98889.75;;;21.56;100.00
24666;BME280;29726;53.532;-1.478;2023-03-30T15:33:53;98881.47;;;21.51;100.00
24666;BME280;29726;53.532;-1.478;2023-03-30T15:36:39;98870.88;;;21.51;100.00
24666;BME280;29726;53.532;-1.478;2023-03-30T15:39:25;98871.78;;;21.54;100.00
24666;BME280;29726;53.532;-1.478;2023-03-30T15:42:30;98862.19;;;21.49;100.00
24666;BME280;29726;53.532;-1.478;2023-03-30T15:45:15;98865.38;;;21.53;100.00
24666;BME280;29726;53.532;-1.478;2023-03-30T15:48:00;98879.13;;;21.57;100.00
24666;BME280;29726;53.532;-1.478;2023-03-30T15:50:50;98874.88;;;21.48;100.00
24666;BME280;29726;53.532;-1.478;2023-03-30T15:56:52;98893.16;;;21.55;100.00
24666;BME280;29726;53.532;-1.478;2023-03-30T15:59:48;98885.06;;;21.51;100.00
24666;BME280;29726;53.532;-1.478;2023-03-30T16:05:20;98862.34;;;21.51;100.00
24666;BME280;29726;53.532;-1.478;2023-03-30T16:08:05;98848.06;;;21.42;100.00
24666;BME280;29726;53.532;-1.478;2023-03-30T16:10:49;98869.09;;;21.56;100.00
24666;BME280;29726;53.532;-1.478;2023-03-30T16:13:39;98866.88;;;21.54;100.00
24666;BME280;29726;53.532;-1.478;2023-03-30T16:16:24;98872.03;;;21.48;100.00
24666;BME280;29726;53.532;-1.478;2023-03-30T16:19:12;98875.38;;;21.54;100.00
24666;BME280;29726;53.532;-1.478;2023-03-30T16:21:57;98875.94;;;21.53;100.00
24666;BME280;29726;53.532;-1.478;2023-03-30T16:24:41;98854.41;;;21.50;100.00
24666;BME280;29726;53.532;-1.478;2023-03-30T16:27:25;98846.13;;;21.44;100.00
24666;BME280;29726;53.532;-1.478;2023-03-30T16:30:32;98856.34;;;21.47;100.00
24666;BME280;29726;53.532;-1.478;2023-03-30T16:33:16;98850.66;;;21.47;100.00
24666;BME280;29726;53.532;-1.478;2023-03-30T16:36:00;98848.56;;;21.48;100.00
24666;BME280;29726;53.532;-1.478;2023-03-30T16:38:45;98858.00;;;21.50;100.00
24666;BME280;29726;53.532;-1.478;2023-03-30T16:41:30;98842.13;;;21.47;100.00
24666;BME280;29726;53.532;-1.478;2023-03-30T16:44:15;98844.97;;;21.47;100.00
24666;BME280;29726;53.532;-1.478;2023-03-30T16:46:59;98830.00;;;21.47;100.00